Time;durP1;ratioP1;P1;durP2;ratioP2;P2;SDS_P1;SDS_P2;PMS_P1;PMS_P2;Temp;Humidity;BMP_temperature;BMP_pressure;BME280_temperature;BME280_humidity;BME280_pressure;Samples;Min_cycle;Max_cycle;Signal;HPM_P1;HPM_P2
2022/06/27 00:01:21;;;;;;;1.80;1.70;;;20.10;99.90;;;20.49;nan;100434.50;4989453;28;20648;-65
2022/06/27 00:03:48;;;;;;;1.70;1.60;;;20.10;99.90;;;20.54;nan;100436.63;4990914;28;20626;-65
2022/06/27 00:06:19;;;;;;;2.07;1.87;;;20.10;99.90;;;20.45;nan;100448.28;4990112;28;20700;-65
2022/06/27 00:08:48;;;;;;;2.50;1.70;;;20.10;99.90;;;20.37;nan;100446.53;4991831;28;21185;-64
2022/06/27 00:11:17;;;;;;;1.67;1.60;;;20.00;99.90;;;20.37;nan;100446.53;4972831;28;20662;-65
2022/06/27 00:13:45;;;;;;;2.80;2.27;;;20.00;99.90;;;20.45;nan;100453.56;5000346;28;20634;-65
2022/06/27 00:16:12;;;;;;;1.50;1.40;;;19.80;99.90;;;20.39;nan;100476.31;4991084;28;20673;-65
2022/06/27 00:18:59;;;;;;;2.60;2.03;;;19.70;99.90;;;20.30;nan;100497.75;4993648;28;20598;-66
2022/06/27 00:21:26;;;;;;;1.53;1.43;;;19.70;99.90;;;20.31;nan;100491.44;4992430;28;20664;-65
2022/06/27 00:23:54;;;;;;;2.47;2.30;;;19.70;99.90;;;20.18;nan;100483.22;4993547;28;20614;-65
2022/06/27 00:26:21;;;;;;;2.10;2.00;;;19.70;99.90;;;20.26;nan;100483.19;4992612;28;21249;-64
2022/06/27 00:28:48;;;;;;;2.50;2.30;;;19.70;99.90;;;20.25;nan;100479.75;4994420;28;20997;-65
2022/06/27 00:31:15;;;;;;;3.30;3.00;;;19.70;99.90;;;20.22;nan;100466.84;5006768;28;20630;-65
2022/06/27 00:33:42;;;;;;;1.03;0.93;;;19.70;99.90;;;20.25;nan;100479.75;4985099;28;20650;-65
2022/06/27 00:36:09;;;;;;;1.67;1.50;;;19.70;99.90;;;20.23;nan;100492.31;4973297;28;20677;-65
2022/06/27 00:38:36;;;;;;;2.00;1.87;;;19.70;99.90;;;20.27;nan;100506.06;4972800;28;20645;-65
2022/06/27 00:41:03;;;;;;;1.97;1.40;;;19.70;99.90;;;20.29;nan;100507.53;4973735;28;21187;-66
2022/06/27 00:43:30;;;;;;;2.83;1.90;;;19.70;99.90;;;20.37;nan;100520.72;4992767;28;20970;-65
2022/06/27 00:45:57;;;;;;;1.50;1.50;;;19.70;99.90;;;20.40;nan;100524.84;4992830;28;20670;-65
2022/06/27 00:48:24;;;;;;;1.50;1.50;;;19.80;99.90;;;20.32;nan;100506.34;4992006;28;21011;-64
2022/06/27 00:50:52;;;;;;;2.23;2.13;;;19.80;99.90;;;20.40;nan;100485.91;4992980;28;20610;-66
2022/06/27 00:53:19;;;;;;;1.60;1.50;;;19.80;99.90;;;20.30;nan;100461.47;4993898;28;20649;-65
2022/06/27 00:55:46;;;;;;;1.63;0.80;;;19.70;99.90;;;20.07;nan;100445.56;4992890;28;20696;-65
2022/06/27 00:58:13;;;;;;;1.07;1.07;;;19.50;99.90;;;19.90;nan;100430.78;4993386;28;20615;-65
2022/06/27 01:00:40;;;;;;;2.37;2.20;;;19.30;99.90;;;19.91;nan;100439.53;4991047;28;20645;-65
2022/06/27 01:03:07;;;;;;;2.33;2.13;;;19.30;99.90;;;19.70;nan;100448.06;4992308;28;20642;-64
2022/06/27 01:05:34;;;;;;;1.83;1.73;;;19.20;99.90;;;19.64;nan;100437.34;4990825;28;20674;-64
2022/06/27 01:08:01;;;;;;;1.67;1.63;;;19.10;99.90;;;19.73;nan;100437.16;4991298;28;20626;-64
2022/06/27 01:10:29;;;;;;;1.57;1.47;;;19.10;99.90;;;19.76;nan;100423.56;4991667;28;20648;-64
2022/06/27 01:12:56;;;;;;;1.73;1.60;;;19.00;99.90;;;19.78;nan;100402.22;4993339;28;20648;-64
2022/06/27 01:15:24;;;;;;;1.73;1.63;;;19.10;99.90;;;19.76;nan;100380.41;4985904;28;20667;-65
2022/06/27 01:17:51;;;;;;;0.50;0.50;;;19.10;99.90;;;19.79;nan;100361.50;4989729;28;20681;-65
2022/06/27 01:20:18;;;;;;;3.10;2.33;;;19.10;99.90;;;19.79;nan;100349.09;4991414;28;21194;-65
2022/06/27 01:22:45;;;;;;;2.60;1.90;;;19.20;99.90;;;19.75;nan;100339.03;4993303;28;20629;-65
2022/06/27 01:25:14;;;;;;;2.10;1.90;;;19.10;99.90;;;19.83;nan;100345.09;4992324;28;20885;-65
2022/06/27 01:27:43;;;;;;;1.67;1.57;;;19.10;99.90;;;19.91;nan;100360.09;4993341;28;20622;-64
2022/06/27 01:30:11;;;;;;;2.67;1.57;;;19.20;99.90;;;19.81;nan;100356.84;4972768;28;20615;-64
2022/06/27 01:32:38;;;;;;;1.70;1.50;;;19.10;99.90;;;20.00;nan;100365.16;4989953;28;20638;-64
2022/06/27 01:35:06;;;;;;;1.27;1.27;;;19.30;99.90;;;20.05;nan;100352.22;4990582;28;20625;-65
2022/06/27 01:37:33;;;;;;;1.70;1.60;;;19.40;99.90;;;20.02;nan;100336.66;4991463;28;20622;-65
2022/06/27 01:40:00;;;;;;;3.47;1.10;;;19.40;99.90;;;20.03;nan;100333.03;4991545;28;20653;-64
2022/06/27 01:42:29;;;;;;;1.50;1.40;;;19.30;99.90;;;20.01;nan;100324.44;4992962;28;20614;-64
2022/06/27 01:44:56;;;;;;;1.47;1.30;;;19.40;99.90;;;19.99;nan;100329.09;4981812;28;20713;-65
2022/06/27 01:47:23;;;;;;;1.40;1.40;;;19.30;99.90;;;19.97;nan;100336.41;4972317;28;20659;-65
2022/06/27 01:49:51;;;;;;;1.63;1.53;;;19.20;99.90;;;19.94;nan;100334.09;4984470;28;20650;-64
2022/06/27 01:52:18;;;;;;;1.20;1.20;;;19.20;99.90;;;19.99;nan;100337.03;4989197;28;21002;-64
2022/06/27 01:54:50;;;;;;;1.50;1.47;;;19.30;99.90;;;20.12;nan;100331.13;4991360;28;20675;-65
2022/06/27 01:57:18;;;;;;;1.20;1.10;;;19.40;99.90;;;20.23;nan;100327.25;4988857;28;20669;-64
2022/06/27 01:59:45;;;;;;;1.70;1.60;;;19.50;99.90;;;20.28;nan;100325.72;4991906;28;21134;-66
2022/06/27 02:02:12;;;;;;;1.13;1.10;;;19.60;99.90;;;20.36;nan;100338.88;4988132;28;20650;-65
2022/06/27 02:04:41;;;;;;;3.53;1.17;;;19.60;99.90;;;20.38;nan;100341.38;4990319;28;20811;-64
2022/06/27 02:07:08;;;;;;;1.60;1.33;;;19.70;99.90;;;20.37;nan;100343.19;4979760;28;21050;-64
2022/06/27 02:09:35;;;;;;;1.23;1.13;;;19.60;99.90;;;20.38;nan;100341.38;4976123;28;20631;-66
2022/06/27 02:12:19;;;;;;;1.20;1.20;;;19.60;99.90;;;20.35;nan;100339.06;4990428;28;20697;-65
2022/06/27 02:14:52;;;;;;;1.47;1.43;;;19.60;99.90;;;20.38;nan;100326.28;4991494;28;20586;-65
2022/06/27 02:17:21;;;;;;;1.50;1.40;;;19.60;99.90;;;20.48;nan;100326.03;4992189;28;21075;-65
2022/06/27 02:19:49;;;;;;;1.60;1.50;;;19.70;99.90;;;20.48;nan;100304.81;4989776;28;21038;-62
2022/06/27 02:22:16;;;;;;;1.30;1.30;;;19.80;99.90;;;20.51;nan;100301.78;4979790;28;20713;-65
2022/06/27 02:24:44;;;;;;;1.60;1.50;;;19.80;99.90;;;20.49;nan;100296.69;4990501;28;20621;-64
2022/06/27 02:27:11;;;;;;;2.00;1.90;;;19.70;99.90;;;20.39;nan;100305.91;4990833;28;20680;-65
2022/06/27 02:29:38;;;;;;;4.47;1.90;;;19.60;99.90;;;20.41;nan;100294.13;4990197;28;20634;-65
2022/06/27 02:32:07;;;;;;;2.00;1.90;;;19.70;99.90;;;20.47;nan;100282.78;4990336;28;20641;-64
2022/06/27 02:34:37;;;;;;;2.30;2.10;;;19.70;99.90;;;20.50;nan;100265.72;4990967;28;20622;-66
2022/06/27 02:37:05;;;;;;;2.20;2.10;;;19.80;99.90;;;20.56;nan;100273.75;4990733;28;20669;-65
2022/06/27 02:39:36;;;;;;;2.00;1.90;;;19.90;99.90;;;20.53;nan;100276.75;4991428;28;20618;-65
2022/06/27 02:42:07;;;;;;;1.93;1.80;;;19.80;99.90;;;20.46;nan;100257.31;4990247;28;20646;-64
2022/06/27 02:44:36;;;;;;;2.43;1.87;;;19.80;99.90;;;20.43;nan;100254.19;4985675;28;20638;-65
2022/06/27 02:47:03;;;;;;;1.60;1.60;;;19.70;99.90;;;20.44;nan;100255.84;4975014;28;20751;-65
2022/06/27 02:49:31;;;;;;;3.53;1.67;;;19.70;99.90;;;20.38;nan;100252.06;4988698;28;20786;-65
2022/06/27 02:52:30;;;;;;;4.20;1.70;;;19.60;99.90;;;20.35;nan;100267.53;4987405;28;20630;-65
2022/06/27 02:55:13;;;;;;;3.27;1.80;;;19.60;99.90;;;20.35;nan;100278.13;4993801;28;21016;-64
2022/06/27 02:57:58;;;;;;;1.53;1.53;;;19.60;99.90;;;20.36;nan;100293.03;4971066;28;21009;-65
2022/06/27 03:00:28;;;;;;;1.57;1.47;;;19.60;99.90;;;20.30;nan;100301.69;4987936;28;20685;-65
2022/06/27 03:02:56;;;;;;;3.47;2.03;;;19.60;99.90;;;20.25;nan;100307.53;4990375;28;20858;-65
2022/06/27 03:05:23;;;;;;;2.20;2.00;;;19.50;99.90;;;20.21;nan;100319.47;4988945;28;20664;-64
2022/06/27 03:07:51;;;;;;;2.07;1.97;;;19.40;99.90;;;20.19;nan;100333.91;4974200;28;20635;-64
2022/06/27 03:10:18;;;;;;;4.43;1.80;;;19.40;99.90;;;20.18;nan;100333.06;4969891;28;20998;-65
2022/06/27 03:12:45;;;;;;;2.83;1.80;;;19.40;99.90;;;20.19;nan;100316.16;4971988;28;20630;-65
2022/06/27 03:15:12;;;;;;;2.13;2.03;;;19.40;99.90;;;20.20;nan;100307.25;4972265;28;21033;-65
2022/06/27 03:17:39;;;;;;;2.63;2.00;;;19.40;99.90;;;20.19;nan;100318.00;4972479;28;20700;-65
2022/06/27 03:20:07;;;;;;;3.33;2.50;;;19.40;99.90;;;20.19;nan;100310.06;4978355;28;20700;-64
2022/06/27 03:22:34;;;;;;;2.67;1.90;;;19.40;99.90;;;20.18;nan;100292.50;4990122;28;21019;-64
2022/06/27 03:25:01;;;;;;;3.07;2.83;;;19.40;99.90;;;20.21;nan;100289.53;4989863;28;21182;-65
2022/06/27 03:27:28;;;;;;;2.90;2.63;;;19.50;99.90;;;20.29;nan;100284.97;4989304;28;20666;-65
2022/06/27 03:29:55;;;;;;;4.70;2.93;;;19.60;99.90;;;20.31;nan;100287.44;4990336;28;20628;-67
2022/06/27 03:32:22;;;;;;;3.53;2.13;;;19.60;99.90;;;20.36;nan;100291.19;4987326;28;20634;-64
2022/06/27 03:34:49;;;;;;;2.43;2.23;;;19.60;99.90;;;20.34;nan;100292.38;4989108;28;21019;-64
2022/06/27 03:37:16;;;;;;;2.93;2.60;;;19.60;99.90;;;20.30;nan;100304.31;4989822;28;20669;-65
2022/06/27 03:39:43;;;;;;;3.37;3.10;;;19.60;99.90;;;20.29;nan;100305.34;4992687;28;20966;-66
2022/06/27 03:42:10;;;;;;;6.30;3.27;;;19.60;99.90;;;20.34;nan;100302.97;4993330;28;20610;-64
2022/06/27 03:44:37;;;;;;;3.40;2.83;;;19.60;99.90;;;20.41;nan;100314.50;4993445;28;20642;-65
2022/06/27 03:47:04;;;;;;;4.90;4.00;;;19.70;99.90;;;20.43;nan;100323.09;4985708;28;20677;-66
2022/06/27 03:52:16;;;;;;;4.40;3.87;;;19.80;99.90;;;20.47;nan;100330.50;4988764;28;20633;-65
2022/06/27 03:54:43;;;;;;;5.00;4.50;;;19.80;99.90;;;20.36;nan;100338.88;5008323;28;20598;-65
2022/06/27 03:57:10;;;;;;;5.37;4.47;;;19.60;99.90;;;20.34;nan;100348.84;4990458;28;20670;-66
2022/06/27 03:59:37;;;;;;;5.53;4.40;;;19.60;99.90;;;20.31;nan;100345.72;4992856;28;21059;-65
2022/06/27 04:02:05;;;;;;;7.03;5.50;;;19.60;99.90;;;20.31;nan;100353.69;4993189;28;20661;-65
2022/06/27 04:04:32;;;;;;;5.47;4.50;;;19.60;99.90;;;20.37;nan;100371.50;4995007;28;20614;-64
2022/06/27 04:07:02;;;;;;;5.77;4.97;;;19.60;99.90;;;20.37;nan;100364.38;4993533;28;20705;-64
2022/06/27 04:09:30;;;;;;;13.93;5.60;;;19.70;99.90;;;20.39;nan;100372.97;4986969;28;20662;-65
2022/06/27 04:11:57;;;;;;;8.30;6.03;;;19.70;99.90;;;20.42;nan;100374.44;4983443;28;20823;-65
2022/06/27 04:14:24;;;;;;;9.40;6.20;;;19.70;99.90;;;20.47;nan;100372.06;4986429;28;20642;-66
2022/06/27 04:16:52;;;;;;;10.23;6.27;;;19.70;99.90;;;20.46;nan;100381.03;4991056;28;20670;-65
2022/06/27 04:19:19;;;;;;;7.80;5.80;;;19.70;99.90;;;20.47;nan;100385.31;4980253;28;20639;-65
2022/06/27 04:21:46;;;;;;;8.73;6.20;;;19.70;99.90;;;20.37;nan;100398.00;4972545;28;20637;-65
2022/06/27 04:24:13;;;;;;;8.90;5.30;;;19.60;99.90;;;20.40;nan;100402.97;4979305;28;20645;-65
2022/06/27 04:26:40;;;;;;;6.63;5.93;;;19.70;99.90;;;20.37;nan;100408.59;4992849;28;20685;-64
2022/06/27 04:29:07;;;;;;;9.80;6.97;;;19.60;99.90;;;20.40;nan;100408.25;4992444;28;20618;-65
2022/06/27 04:31:35;;;;;;;12.93;6.13;;;19.70;99.90;;;20.42;nan;100399.09;4993266;28;20618;-64
2022/06/27 04:34:03;;;;;;;9.87;6.37;;;19.70;99.90;;;20.44;nan;100383.03;4974749;28;20603;-64
2022/06/27 04:36:31;;;;;;;8.23;5.50;;;19.70;99.90;;;20.44;nan;100386.53;4989409;28;20665;-65
2022/06/27 04:38:58;;;;;;;7.00;5.30;;;19.70;99.90;;;20.40;nan;100382.56;4992310;28;20638;-65
2022/06/27 04:41:26;;;;;;;12.23;6.70;;;19.80;99.90;;;20.46;nan;100375.75;4991906;28;20642;-65
2022/06/27 04:43:53;;;;;;;7.00;5.23;;;19.80;99.90;;;20.49;nan;100380.66;4984111;28;20639;-66
2022/06/27 04:46:20;;;;;;;8.33;5.77;;;19.80;99.90;;;20.57;nan;100393.84;4992347;28;20665;-65
2022/06/27 04:48:48;;;;;;;7.33;5.17;;;19.80;99.90;;;20.61;nan;100397.78;4992621;28;21140;-65
2022/06/27 04:51:15;;;;;;;6.90;5.10;;;19.90;99.90;;;20.65;nan;100404.38;4992769;28;20626;-65
2022/06/27 04:53:44;;;;;;;6.20;5.17;;;20.00;99.90;;;20.74;nan;100409.41;4984440;28;21019;-65
2022/06/27 04:56:12;;;;;;;11.90;5.10;;;20.00;99.90;;;20.76;nan;100409.25;4992315;23;20690;-64
2022/06/27 04:58:39;;;;;;;5.90;4.77;;;20.10;99.90;;;20.84;nan;100435.69;4979703;28;20631;-66
2022/06/27 05:01:06;;;;;;;4.57;3.80;;;20.10;99.90;;;20.85;nan;100448.75;4977957;28;20631;-66
2022/06/27 05:03:34;;;;;;;4.50;4.10;;;20.20;99.90;;;20.90;nan;100453.50;4992263;28;21074;-66
2022/06/27 05:06:02;;;;;;;4.60;3.97;;;20.20;99.90;;;20.94;nan;100446.00;4996141;28;21004;-66
2022/06/27 05:08:29;;;;;;;4.77;3.87;;;20.30;99.90;;;21.06;nan;100442.75;5011520;28;20625;-65
2022/06/27 05:10:56;;;;;;;4.30;3.90;;;20.40;99.90;;;21.17;nan;100430.91;5001867;28;21008;-65
2022/06/27 05:13:24;;;;;;;3.73;3.30;;;20.50;99.90;;;21.25;nan;100426.28;5002748;28;20625;-65
2022/06/27 05:15:51;;;;;;;6.23;3.57;;;20.60;99.90;;;21.32;nan;100410.44;5008572;28;20669;-66
2022/06/27 05:18:18;;;;;;;4.70;4.20;;;20.60;99.90;;;21.37;nan;100422.19;5002495;28;21205;-65
2022/06/27 05:20:45;;;;;;;4.60;3.77;;;20.70;99.90;;;21.42;nan;100438.34;5008293;28;20638;-66
2022/06/27 05:23:12;;;;;;;3.50;3.20;;;20.80;99.90;;;21.48;nan;100447.44;4998614;28;20641;-66
2022/06/27 05:25:41;;;;;;;4.13;3.70;;;20.80;99.90;;;21.50;nan;100443.59;4991126;28;20633;-66
2022/06/27 05:28:09;;;;;;;3.87;3.57;;;20.80;99.90;;;21.55;nan;100443.03;4989145;28;21015;-66
2022/06/27 05:30:36;;;;;;;4.47;3.97;;;20.90;99.90;;;21.62;nan;100444.75;4991387;28;20622;-66
2022/06/27 05:33:03;;;;;;;8.17;3.80;;;20.90;99.90;;;21.80;nan;100441.69;5007760;28;20626;-66
2022/06/27 05:35:30;;;;;;;3.57;3.30;;;21.10;99.90;;;22.01;nan;100439.09;5000875;28;20700;-65
2022/06/27 05:37:59;;;;;;;3.50;3.20;;;21.40;99.90;;;22.13;nan;100432.25;4999740;28;20626;-66
2022/06/27 05:40:27;;;;;;;3.83;3.53;;;21.50;99.90;;;22.20;nan;100435.81;4991563;28;20649;-66
2022/06/27 05:42:54;;;;;;;3.50;3.20;;;21.60;99.90;;;22.29;nan;100445.31;4991342;28;20626;-68
2022/06/27 05:45:21;;;;;;;6.47;3.47;;;21.60;99.90;;;22.24;nan;100449.53;4990495;28;20637;-66
2022/06/27 05:47:48;;;;;;;3.47;3.17;;;21.60;99.90;;;22.19;nan;100457.28;4992464;28;20746;-66
2022/06/27 05:50:16;;;;;;;3.80;3.50;;;21.50;99.90;;;22.16;nan;100449.66;5004948;28;21452;-66
2022/06/27 05:52:43;;;;;;;3.53;3.23;;;21.50;99.90;;;22.08;nan;100463.09;4994733;28;21181;-65
2022/06/27 05:55:11;;;;;;;6.00;3.77;;;21.40;99.90;;;22.12;nan;100474.97;4991436;28;20626;-65
2022/06/27 05:57:38;;;;;;;3.63;3.33;;;21.40;99.90;;;22.10;nan;100485.81;4991630;28;20681;-65
2022/06/27 06:00:08;;;;;;;4.43;3.90;;;21.40;99.90;;;22.14;nan;100484.41;4991272;28;20627;-66
2022/06/27 06:02:35;;;;;;;3.93;3.63;;;21.40;99.90;;;22.16;nan;100476.25;5000625;28;20626;-65
2022/06/27 06:05:03;;;;;;;3.80;3.50;;;21.50;99.90;;;22.23;nan;100480.59;5001916;28;20629;-65
2022/06/27 06:07:30;;;;;;;3.63;3.30;;;21.50;99.90;;;22.35;nan;100468.47;4998002;28;20683;-65
2022/06/27 06:09:57;;;;;;;5.20;4.10;;;21.70;99.90;;;22.45;nan;100440.72;4990190;28;21173;-65
2022/06/27 06:12:26;;;;;;;3.30;3.10;;;21.70;99.90;;;22.51;nan;100450.63;4988634;28;20630;-65
2022/06/27 06:14:55;;;;;;;5.20;3.40;;;21.80;99.90;;;22.48;nan;100454.47;4991627;28;20625;-65
2022/06/27 06:17:23;;;;;;;3.37;3.07;;;21.80;99.90;;;22.50;nan;100452.44;4991207;28;21205;-65
2022/06/27 06:19:52;;;;;;;3.37;3.13;;;21.80;99.90;;;22.48;nan;100453.66;4993867;28;20703;-66
2022/06/27 06:22:19;;;;;;;3.60;3.30;;;21.80;99.90;;;22.45;nan;100465.47;4991886;28;20639;-65
2022/06/27 06:24:49;;;;;;;3.27;2.93;;;21.70;99.90;;;22.49;nan;100465.94;4990794;28;20630;-65
2022/06/27 06:27:21;;;;;;;3.50;3.07;;;21.80;99.90;;;22.52;nan;100471.69;4991963;28;20670;-65
2022/06/27 06:29:48;;;;;;;3.70;3.40;;;21.80;99.90;;;22.58;nan;100468.25;5005726;28;20626;-64
2022/06/27 06:32:16;;;;;;;3.27;3.07;;;21.90;99.90;;;22.65;nan;100463.88;5009250;28;20670;-66
2022/06/27 06:34:43;;;;;;;3.67;3.37;;;21.90;99.90;;;22.67;nan;100475.13;5000681;28;20638;-65
2022/06/27 06:37:10;;;;;;;3.73;3.43;;;22.00;99.90;;;22.77;nan;100488.91;4990996;28;21205;-65
2022/06/27 06:39:40;;;;;;;3.43;3.13;;;22.10;99.90;;;22.85;nan;100475.47;5006471;28;20637;-65
2022/06/27 06:42:07;;;;;;;4.40;2.97;;;22.20;99.90;;;23.03;nan;100482.97;5010329;28;20637;-65
2022/06/27 06:44:34;;;;;;;3.00;2.63;;;22.30;99.90;;;23.29;nan;100496.47;5001547;28;21233;-65
2022/06/27 06:47:02;;;;;;;4.90;3.43;;;22.60;99.90;;;23.60;nan;100504.84;4998105;28;21353;-65
2022/06/27 06:49:29;;;;;;;3.10;2.63;;;22.90;99.90;;;23.85;nan;100499.84;4995272;28;21213;-65
2022/06/27 06:51:56;;;;;;;6.03;3.63;;;23.20;99.90;;;23.96;nan;100493.13;5010618;28;20732;-65
2022/06/27 06:54:26;;;;;;;3.33;3.13;;;23.30;99.90;;;24.00;nan;100489.84;5007761;28;20630;-65
2022/06/27 06:56:53;;;;;;;3.17;2.90;;;23.40;99.90;;;23.91;nan;100504.38;5011090;28;21035;-65
2022/06/27 06:59:20;;;;;;;3.97;3.17;;;23.30;99.90;;;23.67;nan;100508.38;5009665;28;20641;-65
2022/06/27 07:01:47;;;;;;;3.13;2.93;;;23.00;99.90;;;23.56;nan;100506.28;4997658;28;21219;-65
2022/06/27 07:04:16;;;;;;;2.80;2.60;;;22.90;99.90;;;23.52;nan;100515.69;5005214;28;20636;-65
2022/06/27 07:06:45;;;;;;;3.00;2.80;;;22.80;99.90;;;23.46;nan;100518.31;5000299;28;20809;-66
2022/06/27 07:09:12;;;;;;;3.33;3.03;;;22.70;99.90;;;23.39;nan;100526.25;4992125;28;20634;-67
2022/06/27 07:11:40;;;;;;;3.67;3.30;;;22.70;99.90;;;23.36;nan;100537.28;4999677;28;20641;-67
2022/06/27 07:14:07;;;;;;;3.00;2.80;;;22.60;99.90;;;23.41;nan;100529.53;4999350;28;20983;-66
2022/06/27 07:16:35;;;;;;;3.90;2.87;;;22.70;99.90;;;23.48;nan;100527.75;4991944;28;20688;-65
2022/06/27 07:19:03;;;;;;;2.77;2.57;;;22.80;99.90;;;23.52;nan;100546.81;4994690;28;20625;-65
2022/06/27 07:21:31;;;;;;;2.77;2.57;;;22.80;99.90;;;23.38;nan;100551.25;4986631;28;21209;-65
2022/06/27 07:24:00;;;;;;;2.67;2.47;;;22.70;99.90;;;23.37;nan;100544.25;5011288;28;20633;-67
2022/06/27 07:26:32;;;;;;;2.87;2.67;;;22.60;99.90;;;23.20;nan;100524.25;5003660;28;20671;-65
2022/06/27 07:29:04;;;;;;;2.40;2.13;;;22.60;99.90;;;23.19;nan;100517.28;4993025;28;20626;-66
2022/06/27 07:31:32;;;;;;;3.07;2.87;;;22.50;99.90;;;23.21;nan;100517.91;4993658;28;21385;-66
2022/06/27 07:34:02;;;;;;;2.17;2.07;;;22.50;99.90;;;23.26;nan;100519.97;4997513;28;20638;-66
2022/06/27 07:36:29;;;;;;;2.87;2.40;;;22.50;99.90;;;23.25;nan;100518.34;5002005;28;20654;-66
2022/06/27 07:38:58;;;;;;;2.53;2.43;;;22.50;99.90;;;23.20;nan;100520.75;4997310;28;20985;-63
2022/06/27 07:41:26;;;;;;;2.20;2.10;;;22.50;99.90;;;23.19;nan;100519.13;4994906;28;20633;-67
2022/06/27 07:43:55;;;;;;;2.50;2.30;;;22.50;99.90;;;23.17;nan;100514.81;4996153;28;20624;-65
2022/06/27 07:46:22;;;;;;;3.13;2.30;;;22.50;99.90;;;23.19;nan;100509.31;4995698;28;20661;-64
2022/06/27 07:48:52;;;;;;;2.60;2.40;;;22.50;99.90;;;23.28;nan;100517.94;4997840;28;20665;-66
2022/06/27 07:51:19;;;;;;;2.33;2.23;;;22.60;99.90;;;23.32;nan;100520.00;4992946;28;21216;-66
2022/06/27 07:53:48;;;;;;;2.60;2.50;;;22.60;99.90;;;23.46;nan;100531.63;4993060;28;20696;-66
2022/06/27 07:56:18;;;;;;;2.60;2.40;;;22.70;99.90;;;23.55;nan;100514.47;5004420;28;20677;-66
2022/06/27 07:58:55;;;;;;;2.47;2.30;;;22.90;99.90;;;23.63;nan;100524.94;5009515;28;20635;-66
2022/06/27 08:01:23;;;;;;;2.40;2.30;;;22.90;99.90;;;23.58;nan;100519.38;5005764;28;20641;-66
2022/06/27 08:03:51;;;;;;;4.60;4.17;;;22.90;99.90;;;23.49;nan;100523.25;4991643;28;20622;-66
2022/06/27 08:06:23;;;;;;;4.57;4.17;;;22.80;99.90;;;23.37;nan;100535.44;5008341;28;20703;-66
2022/06/27 08:09:02;;;;;;;5.33;4.83;;;22.60;99.90;;;23.33;nan;100547.50;5011653;28;20673;-63
2022/06/27 08:11:33;;;;;;;5.40;4.57;;;22.60;99.90;;;23.26;nan;100552.75;4995800;28;20641;-66
2022/06/27 08:14:06;;;;;;;4.90;4.17;;;22.50;99.90;;;23.17;nan;100569.06;5000840;28;20640;-66
2022/06/27 08:16:36;;;;;;;4.87;3.80;;;22.40;99.90;;;22.98;nan;100574.03;5011429;28;21010;-66
2022/06/27 08:19:04;;;;;;;4.30;3.90;;;22.20;99.90;;;22.76;nan;100579.56;5011759;28;20660;-66
2022/06/27 08:21:31;;;;;;;3.43;3.13;;;22.00;99.90;;;22.55;nan;100580.34;4997340;28;20634;-66
2022/06/27 08:24:01;;;;;;;4.10;3.27;;;21.80;99.90;;;22.35;nan;100571.31;4997220;28;20657;-66
2022/06/27 08:26:31;;;;;;;3.60;3.30;;;21.60;99.90;;;22.18;nan;100565.41;4990906;28;20677;-66
2022/06/27 08:28:59;;;;;;;3.50;3.20;;;21.50;99.90;;;22.30;nan;100566.56;4991109;28;20661;-66
2022/06/27 08:31:27;;;;;;;3.23;2.97;;;21.60;99.90;;;22.31;nan;100556.75;4992614;28;21001;-67
2022/06/27 08:33:58;;;;;;;3.03;2.80;;;21.60;99.90;;;22.52;nan;100558.59;4993699;28;20649;-66
2022/06/27 08:36:27;;;;;;;4.00;3.60;;;21.80;99.90;;;22.51;nan;100576.38;4989724;28;20661;-66
2022/06/27 08:39:05;;;;;;;4.00;3.20;;;21.80;99.90;;;22.76;nan;100577.72;5011460;28;20624;-66
2022/06/27 08:41:33;;;;;;;5.97;3.37;;;22.10;99.90;;;22.67;nan;100575.38;5011082;28;20629;-66
2022/06/27 08:44:04;;;;;;;3.40;3.10;;;22.00;99.90;;;22.88;nan;100586.00;4997876;28;20653;-66
2022/06/27 08:46:31;;;;;;;5.00;3.47;;;22.20;99.90;;;23.06;nan;100586.38;5005830;28;21232;-66
2022/06/27 08:48:58;;;;;;;3.17;2.97;;;22.40;99.90;;;23.28;nan;100576.50;4993731;28;20665;-66
2022/06/27 08:51:27;;;;;;;3.27;2.97;;;22.60;99.90;;;23.62;nan;100568.56;4989953;28;21325;-66
2022/06/27 08:53:55;;;;;;;2.87;2.67;;;23.00;99.90;;;24.01;nan;100589.28;4992127;28;20633;-66
2022/06/27 08:56:24;;;;;;;7.70;2.33;;;23.50;99.90;;;24.53;nan;100587.66;4991973;28;20684;-66
2022/06/27 08:58:52;;;;;;;2.43;2.33;;;24.00;99.90;;;24.94;nan;100600.88;5006960;28;20637;-65
2022/06/27 09:01:22;;;;;;;3.73;3.20;;;24.40;99.90;;;24.98;nan;100601.31;5000362;28;20635;-65
2022/06/27 09:03:59;;;;;;;2.90;2.60;;;24.40;99.90;;;24.67;nan;100596.50;5005578;28;21208;-65
2022/06/27 09:06:35;;;;;;;3.20;2.30;;;24.00;99.90;;;24.44;nan;100602.22;4995126;28;20670;-66
2022/06/27 09:09:07;;;;;;;2.03;1.93;;;23.80;99.90;;;24.31;nan;100614.66;4990796;28;21228;-66
2022/06/27 09:11:38;;;;;;;2.70;2.50;;;23.70;99.90;;;24.01;nan;100606.09;5002844;28;20644;-65
2022/06/27 09:14:26;;;;;;;5.60;3.10;;;23.50;99.90;;;24.40;nan;100603.63;5011769;28;20614;-65
2022/06/27 09:16:59;;;;;;;6.80;2.90;;;23.80;99.90;;;24.22;nan;100589.19;5009788;28;20662;-67
2022/06/27 09:19:47;;;;;;;6.23;3.37;;;23.70;99.90;;;24.61;nan;100606.16;4980994;28;20687;-66
2022/06/27 09:22:17;;;;;;;3.27;2.97;;;23.90;99.90;;;25.01;nan;100603.56;4999553;28;20638;-65
2022/06/27 09:25:13;;;;;;;3.10;2.90;;;24.50;99.90;;;26.60;nan;100617.25;5002020;28;20992;-65
2022/06/27 09:27:45;;;;;;;2.60;2.43;;;26.00;99.90;;;26.42;nan;100619.78;5009702;28;20680;-66
2022/06/27 09:30:18;;;;;;;3.10;2.90;;;26.00;99.90;;;28.42;nan;100630.88;5011160;28;20601;-65
2022/06/27 09:32:50;;;;;;;2.83;2.63;;;27.70;99.90;;;30.27;nan;100635.66;5009604;28;20822;-65
2022/06/27 09:35:31;;;;;;;2.70;2.60;;;29.70;99.90;;;35.32;nan;100631.66;5000420;28;20630;-66
2022/06/27 09:38:04;;;;;;;2.60;2.40;;;34.80;93.10;;;39.09;nan;100631.19;5010129;28;20644;-66
2022/06/27 09:40:33;;;;;;;2.90;2.70;;;38.40;78.80;;;39.10;nan;100630.06;5010793;28;20644;-65
2022/06/27 09:43:05;;;;;;;2.57;2.47;;;39.00;66.20;;;39.00;nan;100627.53;5012339;28;20620;-64
2022/06/27 09:45:33;;;;;;;3.10;2.90;;;38.60;65.50;;;37.49;nan;100620.50;5010169;28;21161;-66
2022/06/27 09:48:04;;;;;;;2.57;2.47;;;37.00;65.60;;;37.03;nan;100633.69;4995438;28;20670;-66
2022/06/27 09:50:36;;;;;;;2.73;2.57;;;36.30;68.20;;;36.95;nan;100623.44;4990664;28;20646;-65
2022/06/27 09:53:04;;;;;;;3.03;2.93;;;36.70;64.90;;;37.87;nan;100633.16;5007870;28;20625;-65
2022/06/27 09:55:32;;;;;;;2.83;2.73;;;37.00;66.20;;;37.61;nan;100635.34;5009570;28;21191;-65
2022/06/27 09:58:00;;;;;;;2.37;2.33;;;37.30;64.60;;;39.57;nan;100637.19;5009922;28;20655;-66
2022/06/27 10:00:28;;;;;;;2.37;2.37;;;38.90;63.00;;;40.84;nan;100647.13;5010249;28;20630;-65
2022/06/27 10:02:59;;;;;;;2.47;2.33;;;40.10;60.30;;;40.45;nan;100636.78;4995113;28;20649;-65
2022/06/27 10:05:27;;;;;;;3.63;3.33;;;40.20;58.00;;;37.97;nan;100636.59;5009739;28;20707;-64
2022/06/27 10:08:00;;;;;;;2.50;2.17;;;37.60;60.20;;;34.67;nan;100637.84;5001971;28;20677;-65
2022/06/27 10:10:30;;;;;;;2.63;2.43;;;34.50;63.80;;;32.42;nan;100638.63;5009563;28;21347;-65
2022/06/27 10:13:03;;;;;;;6.17;3.27;;;31.70;69.70;;;30.73;nan;100641.97;4992845;28;20638;-66
2022/06/27 10:15:33;;;;;;;3.43;3.00;;;30.00;75.80;;;29.44;nan;100637.00;4990378;28;20622;-65
2022/06/27 10:18:02;;;;;;;3.53;2.87;;;28.60;81.90;;;28.49;nan;100635.31;4989033;28;21233;-65
2022/06/27 10:20:38;;;;;;;3.30;2.70;;;27.50;87.20;;;27.62;nan;100631.94;4992345;28;20637;-65
2022/06/27 10:23:14;;;;;;;3.87;2.83;;;26.80;91.10;;;26.82;nan;100637.31;5002306;28;21209;-66
2022/06/27 10:25:44;;;;;;;2.57;2.40;;;26.00;94.30;;;26.42;nan;100641.19;5009642;28;20719;-65
2022/06/27 10:28:14;;;;;;;4.43;3.00;;;25.50;97.60;;;26.20;nan;100646.00;5010133;28;20672;-65
2022/06/27 10:30:52;;;;;;;2.93;2.73;;;25.30;99.90;;;25.99;nan;100655.09;5009799;28;20637;-66
2022/06/27 10:33:19;;;;;;;4.00;3.37;;;25.10;99.90;;;25.71;nan;100646.50;4994343;28;20630;-66
2022/06/27 10:38:39;;;;;;;3.23;3.03;;;24.70;99.90;;;25.33;nan;100666.84;4990236;28;20622;-66